createdAt,value
2018-06-24T00:01:49.840Z,24.32
2018-06-24T00:04:18.145Z,26.85
2018-06-24T00:06:46.468Z,24.27
2018-06-24T00:09:14.768Z,25.70
2018-06-24T00:11:43.113Z,25.35
2018-06-24T00:14:11.441Z,38.67
2018-06-24T00:16:39.775Z,28.50
2018-06-24T00:19:08.084Z,35.58
2018-06-24T00:21:36.416Z,23.70
2018-06-24T00:24:04.720Z,26.17
2018-06-24T00:26:33.074Z,28.52
2018-06-24T00:29:01.450Z,26.30
2018-06-24T00:31:29.868Z,40.52
2018-06-24T00:33:58.174Z,19.32
2018-06-24T00:36:26.506Z,35.45
2018-06-24T00:38:54.808Z,29.42
2018-06-24T00:41:23.128Z,19.35
2018-06-24T00:43:51.437Z,21.50
2018-06-24T00:46:19.764Z,26.97
2018-06-24T00:48:48.065Z,32.83
2018-06-24T00:51:16.393Z,22.85
2018-06-24T00:53:44.696Z,20.95
2018-06-24T00:56:13.032Z,22.80
2018-06-24T00:58:41.440Z,24.15
2018-06-24T01:01:09.833Z,18.40
2018-06-24T01:03:38.131Z,24.43
2018-06-24T01:06:06.465Z,24.52
2018-06-24T01:08:34.520Z,20.45
2018-06-24T01:11:02.884Z,24.87
2018-06-24T01:13:31.188Z,21.35
2018-06-24T01:15:59.501Z,27.05
2018-06-24T01:18:27.820Z,26.17
2018-06-24T01:20:56.129Z,22.30
2018-06-24T01:23:24.459Z,27.52
2018-06-24T01:25:52.768Z,19.02
2018-06-24T01:28:21.092Z,18.40
2018-06-24T01:30:49.399Z,14.73
2018-06-24T01:33:17.724Z,23.70
2018-06-24T01:35:46.080Z,23.32
2018-06-24T01:38:14.405Z,18.75
2018-06-24T01:40:42.716Z,24.90
2018-06-24T01:43:11.033Z,28.50
2018-06-24T01:45:39.340Z,21.82
2018-06-24T01:48:07.656Z,19.02
2018-06-24T01:50:35.744Z,28.25
2018-06-24T01:53:04.076Z,26.02
2018-06-24T01:55:32.396Z,20.32
2018-06-24T01:58:00.728Z,17.62
2018-06-24T02:00:29.028Z,21.17
2018-06-24T02:02:57.383Z,26.42
2018-06-24T02:05:25.680Z,23.92
2018-06-24T02:07:54.006Z,25.40
2018-06-24T02:10:22.304Z,28.65
2018-06-24T02:12:55.985Z,27.75
2018-06-24T02:15:24.297Z,22.82
2018-06-24T02:17:52.622Z,30.27
2018-06-24T02:20:20.931Z,17.65
2018-06-24T02:22:49.255Z,30.43
2018-06-24T02:25:17.557Z,27.65
2018-06-24T02:27:45.891Z,20.62
2018-06-24T02:30:14.196Z,27.95
2018-06-24T02:32:42.520Z,26.45
2018-06-24T02:35:10.815Z,29.95
2018-06-24T02:37:39.137Z,18.73
2018-06-24T02:40:07.449Z,17.87
2018-06-24T02:42:35.772Z,23.35
2018-06-24T02:45:04.272Z,26.57
2018-06-24T02:47:32.632Z,31.48
2018-06-24T02:50:00.940Z,19.30
2018-06-24T02:52:29.268Z,29.20
2018-06-24T02:54:57.564Z,19.85
2018-06-24T02:57:25.883Z,32.55
2018-06-24T02:59:54.180Z,33.00
2018-06-24T03:02:22.501Z,28.57
2018-06-24T03:04:50.844Z,25.72
2018-06-24T03:07:19.164Z,31.85
2018-06-24T03:09:47.474Z,33.48
2018-06-24T03:12:15.813Z,28.67
2018-06-24T03:14:44.121Z,31.10
2018-06-24T03:17:12.490Z,39.13
2018-06-24T03:19:40.860Z,27.87
2018-06-24T03:22:09.184Z,26.05
2018-06-24T03:24:37.481Z,36.98
2018-06-24T03:27:05.904Z,31.50
2018-06-24T03:29:34.256Z,32.75
2018-06-24T03:32:02.565Z,32.85
2018-06-24T03:34:30.896Z,36.68
2018-06-24T03:36:59.197Z,31.68
2018-06-24T03:39:27.520Z,36.28
2018-06-24T03:41:55.820Z,27.35
2018-06-24T03:44:24.144Z,29.98
2018-06-24T03:46:52.658Z,38.45
2018-06-24T03:49:21.089Z,28.75
2018-06-24T03:51:49.411Z,31.62
2018-06-24T03:54:17.748Z,29.52
2018-06-24T03:56:46.065Z,29.40
2018-06-24T03:59:14.388Z,36.70
2018-06-24T04:01:42.705Z,33.15
2018-06-24T04:04:11.024Z,27.25
2018-06-24T04:06:39.335Z,28.57
2018-06-24T04:09:08.280Z,25.43
2018-06-24T04:11:36.695Z,26.17
2018-06-24T04:16:38.598Z,27.37
2018-06-24T04:19:06.915Z,32.30
2018-06-24T04:21:35.229Z,26.95
2018-06-24T04:24:03.553Z,25.92
2018-06-24T04:26:31.960Z,18.85
2018-06-24T04:29:00.281Z,22.15
2018-06-24T04:31:28.588Z,23.90
2018-06-24T04:33:56.904Z,23.30
2018-06-24T04:36:25.220Z,24.75
2018-06-24T04:38:53.548Z,22.13
2018-06-24T04:41:21.905Z,27.70
2018-06-24T04:43:50.232Z,23.50
2018-06-24T04:46:18.537Z,26.37
2018-06-24T04:48:46.867Z,18.90
2018-06-24T04:51:15.178Z,23.75
2018-06-24T04:53:43.512Z,22.85
2018-06-24T04:56:11.820Z,22.75
2018-06-24T04:58:40.183Z,30.15
2018-06-24T05:01:08.484Z,14.93
2018-06-24T05:03:36.552Z,23.02
2018-06-24T05:06:04.889Z,19.98
2018-06-24T05:08:33.220Z,27.55
2018-06-24T05:11:01.555Z,21.23
2018-06-24T05:13:29.877Z,14.38
2018-06-24T05:15:58.184Z,30.12
2018-06-24T05:18:26.508Z,27.80
2018-06-24T05:20:54.813Z,19.27
2018-06-24T05:23:23.143Z,20.15
2018-06-24T05:25:51.448Z,19.05
2018-06-24T05:28:19.782Z,20.77
2018-06-24T05:30:48.080Z,19.32
2018-06-24T05:33:16.402Z,20.08
2018-06-24T05:35:44.708Z,19.37
2018-06-24T05:38:13.041Z,18.40
2018-06-24T05:40:41.363Z,20.92
2018-06-24T05:43:09.763Z,13.90
2018-06-24T05:45:38.144Z,13.72
2018-06-24T05:48:06.556Z,30.05
2018-06-24T05:50:35.000Z,19.77
2018-06-24T05:53:03.384Z,19.35
2018-06-24T05:55:31.816Z,21.12
2018-06-24T05:58:00.112Z,20.32
2018-06-24T06:00:28.438Z,15.10
2018-06-24T06:02:56.499Z,16.02
2018-06-24T06:05:24.585Z,15.55
2018-06-24T06:07:52.880Z,17.50
2018-06-24T06:10:21.321Z,18.30
2018-06-24T06:12:49.556Z,19.98
2018-06-24T06:15:17.889Z,18.12
2018-06-24T06:17:46.208Z,14.55
2018-06-24T06:20:14.541Z,24.82
2018-06-24T06:22:43.051Z,13.55
2018-06-24T06:25:11.408Z,13.93
2018-06-24T06:27:39.743Z,10.98
2018-06-24T06:30:08.327Z,13.62
2018-06-24T06:32:38.149Z,24.67
2018-06-24T06:35:06.540Z,14.47
2018-06-24T06:37:34.996Z,15.45
2018-06-24T06:40:03.341Z,14.70
2018-06-24T06:42:31.744Z,15.23
2018-06-24T06:45:00.154Z,10.50
2018-06-24T06:47:28.424Z,18.60
2018-06-24T06:49:56.744Z,10.53
2018-06-24T06:52:25.048Z,20.12
2018-06-24T06:54:53.398Z,13.00
2018-06-24T06:57:21.697Z,15.35
2018-06-24T06:59:50.481Z,18.35
2018-06-24T07:02:18.968Z,11.28
2018-06-24T07:04:47.349Z,15.08
2018-06-24T07:07:15.669Z,15.30
2018-06-24T07:09:43.997Z,10.25
2018-06-24T07:12:12.320Z,18.32
2018-06-24T07:14:40.643Z,10.40
2018-06-24T07:17:08.957Z,13.30
2018-06-24T07:19:37.288Z,13.30
2018-06-24T07:22:05.655Z,7.60
2018-06-24T07:24:33.956Z,6.92
2018-06-24T07:27:02.048Z,15.98
2018-06-24T07:29:30.420Z,9.40
2018-06-24T07:31:58.764Z,11.28
2018-06-24T07:34:27.084Z,5.87
2018-06-24T07:36:55.395Z,11.00
2018-06-24T07:39:23.833Z,15.83
2018-06-24T07:41:52.136Z,21.20
2018-06-24T07:44:20.451Z,11.43
2018-06-24T07:46:48.752Z,12.35
2018-06-24T07:49:17.073Z,8.93
2018-06-24T07:51:45.488Z,7.08
2018-06-24T07:54:13.888Z,12.58
2018-06-24T07:56:42.196Z,10.55
2018-06-24T07:59:10.505Z,6.50
2018-06-24T08:01:38.819Z,9.93
2018-06-24T08:04:07.233Z,4.55
2018-06-24T08:06:35.560Z,9.78
2018-06-24T08:09:05.704Z,11.03
2018-06-24T08:11:34.046Z,9.70
2018-06-24T08:14:02.341Z,6.93
2018-06-24T08:16:30.668Z,6.67
2018-06-24T08:18:59.167Z,6.70
2018-06-24T08:21:27.493Z,12.27
2018-06-24T08:23:55.896Z,8.63
2018-06-24T08:26:24.436Z,9.20
2018-06-24T08:28:52.738Z,9.20
2018-06-24T08:31:21.048Z,9.73
2018-06-24T08:33:49.362Z,13.30
2018-06-24T08:36:17.676Z,6.80
2018-06-24T08:38:45.975Z,9.03
2018-06-24T08:41:14.301Z,5.30
2018-06-24T08:43:42.601Z,8.67
2018-06-24T08:46:10.929Z,10.67
2018-06-24T08:48:39.220Z,7.20
2018-06-24T08:51:07.551Z,6.37
2018-06-24T08:53:35.884Z,7.90
2018-06-24T08:56:04.548Z,6.90
2018-06-24T08:58:32.876Z,5.73
2018-06-24T09:01:01.185Z,7.57
2018-06-24T09:03:29.500Z,12.13
2018-06-24T09:05:57.822Z,9.83
2018-06-24T09:08:26.129Z,5.87
2018-06-24T09:10:54.473Z,10.53
2018-06-24T09:13:22.516Z,3.83
2018-06-24T09:15:50.915Z,5.60
2018-06-24T09:18:19.209Z,7.73
2018-06-24T09:20:47.525Z,6.73
2018-06-24T09:23:15.820Z,7.93
2018-06-24T09:25:44.132Z,9.57
2018-06-24T09:28:12.436Z,10.13
2018-06-24T09:30:40.817Z,10.10
2018-06-24T09:33:09.089Z,7.67
2018-06-24T09:35:37.408Z,4.70
2018-06-24T09:38:05.812Z,5.20
2018-06-24T09:40:34.161Z,6.73
2018-06-24T09:43:02.465Z,7.07
2018-06-24T09:45:30.786Z,10.90
2018-06-24T09:47:59.088Z,8.03
2018-06-24T09:50:27.407Z,4.80
2018-06-24T09:52:55.751Z,8.60
2018-06-24T09:55:24.048Z,8.87
2018-06-24T09:57:52.344Z,6.40
2018-06-24T10:00:21.631Z,5.33
2018-06-24T10:02:50.502Z,4.63
2018-06-24T10:05:18.893Z,6.17
2018-06-24T10:07:47.212Z,4.00
2018-06-24T10:10:15.547Z,8.27
2018-06-24T10:12:43.884Z,7.53
2018-06-24T10:15:12.177Z,9.37
2018-06-24T10:17:40.502Z,7.40
2018-06-24T10:20:08.807Z,8.60
2018-06-24T10:22:37.132Z,17.93
2018-06-24T10:25:05.448Z,5.97
2018-06-24T10:27:33.756Z,6.77
2018-06-24T10:30:02.128Z,6.03
2018-06-24T10:32:30.446Z,5.60
2018-06-24T10:34:58.744Z,5.50
2018-06-24T10:37:27.072Z,4.47
2018-06-24T10:39:55.464Z,9.30
2018-06-24T10:42:23.873Z,5.73
2018-06-24T10:44:52.980Z,7.83
2018-06-24T10:47:21.352Z,7.33
2018-06-24T10:49:51.076Z,7.13
2018-06-24T10:52:26.760Z,3.90
2018-06-24T10:54:55.073Z,6.20
2018-06-24T10:57:23.408Z,8.90
2018-06-24T10:59:51.740Z,3.83
2018-06-24T11:02:20.079Z,5.53
2018-06-24T11:04:48.127Z,4.93
2018-06-24T11:07:16.453Z,11.43
2018-06-24T11:09:44.792Z,5.30
2018-06-24T11:12:13.148Z,7.93
2018-06-24T11:14:41.448Z,5.60
2018-06-24T11:17:09.932Z,7.90
2018-06-24T11:19:38.236Z,5.97
2018-06-24T11:22:06.556Z,4.53
2018-06-24T11:24:34.851Z,4.60
2018-06-24T11:27:03.177Z,6.77
2018-06-24T11:29:31.468Z,4.57
2018-06-24T11:31:59.788Z,7.20
2018-06-24T11:34:28.097Z,9.83
2018-06-24T11:36:56.459Z,6.67
2018-06-24T11:39:25.145Z,12.10
2018-06-24T11:41:53.477Z,17.17
2018-06-24T11:44:21.771Z,3.57
2018-06-24T11:46:50.089Z,7.17
2018-06-24T11:49:18.393Z,4.40
2018-06-24T11:51:46.712Z,6.03
2018-06-24T11:54:15.006Z,4.00
2018-06-24T11:56:43.325Z,6.80
2018-06-24T11:59:11.620Z,6.63
2018-06-24T12:01:39.936Z,8.10
2018-06-24T12:04:08.331Z,4.93
2018-06-24T12:06:37.255Z,5.53
2018-06-24T12:09:07.415Z,14.27
2018-06-24T12:11:35.758Z,9.60
2018-06-24T12:14:04.185Z,11.57
2018-06-24T12:16:32.532Z,11.17
2018-06-24T12:19:00.868Z,5.67
2018-06-24T12:21:29.247Z,5.60
2018-06-24T12:23:57.897Z,6.27
2018-06-24T12:26:26.233Z,7.63
2018-06-24T12:28:54.893Z,5.63
2018-06-24T12:31:23.257Z,11.43
2018-06-24T12:33:51.575Z,5.50
2018-06-24T12:36:20.043Z,8.00
2018-06-24T12:38:48.360Z,5.20
2018-06-24T12:41:16.964Z,7.77
2018-06-24T12:43:45.692Z,13.57
2018-06-24T12:46:13.989Z,5.97
2018-06-24T12:48:42.308Z,12.93
2018-06-24T12:51:10.608Z,5.53
2018-06-24T12:53:39.412Z,7.50
2018-06-24T12:56:07.985Z,9.03
2018-06-24T12:58:36.356Z,5.13
2018-06-24T13:01:04.667Z,7.23
2018-06-24T13:03:32.984Z,9.30
2018-06-24T13:06:01.350Z,13.20
2018-06-24T13:08:29.707Z,7.77
2018-06-24T13:10:58.080Z,7.30
2018-06-24T13:13:26.600Z,10.83
2018-06-24T13:15:55.021Z,8.60
2018-06-24T13:18:23.499Z,5.73
2018-06-24T13:20:51.915Z,9.87
2018-06-24T13:23:20.505Z,5.53
2018-06-24T13:25:48.817Z,7.23
2018-06-24T13:28:17.301Z,6.20
2018-06-24T13:30:45.708Z,7.77
2018-06-24T13:33:14.033Z,5.70
2018-06-24T13:35:42.509Z,6.83
2018-06-24T13:38:11.657Z,4.40
2018-06-24T13:40:40.226Z,14.07
2018-06-24T13:43:08.609Z,12.97
2018-06-24T13:45:36.913Z,5.73
2018-06-24T13:48:05.900Z,5.47
2018-06-24T13:50:34.188Z,6.70
2018-06-24T13:53:02.508Z,5.03
2018-06-24T13:55:30.801Z,6.13
2018-06-24T13:57:59.321Z,8.83
2018-06-24T14:00:27.960Z,10.13
2018-06-24T14:02:57.026Z,6.20
2018-06-24T14:05:25.884Z,5.17
2018-06-24T14:07:54.699Z,10.33
2018-06-24T14:10:23.440Z,5.47
2018-06-24T14:12:51.903Z,8.33
2018-06-24T14:15:22.044Z,9.80
2018-06-24T14:17:50.369Z,16.63
2018-06-24T14:20:19.943Z,7.47
2018-06-24T14:22:49.366Z,6.20
2018-06-24T14:25:17.695Z,4.80
2018-06-24T14:27:46.017Z,6.23
2018-06-24T14:30:14.309Z,7.47
2018-06-24T14:32:42.644Z,5.87
2018-06-24T14:35:11.553Z,9.00
2018-06-24T14:37:39.905Z,6.27
2018-06-24T14:40:08.210Z,7.20
2018-06-24T14:42:36.628Z,6.13
2018-06-24T14:45:06.348Z,6.37
2018-06-24T14:47:35.081Z,6.70
2018-06-24T14:50:03.416Z,6.87
2018-06-24T14:52:31.760Z,4.77
2018-06-24T14:55:00.066Z,5.27
2018-06-24T14:57:28.410Z,7.03
2018-06-24T14:59:57.839Z,5.70
2018-06-24T15:02:26.201Z,5.70
2018-06-24T15:04:54.520Z,7.33
2018-06-24T15:07:22.850Z,5.43
2018-06-24T15:09:51.173Z,8.07
2018-06-24T15:12:19.556Z,7.43
2018-06-24T15:14:48.612Z,7.20
2018-06-24T15:17:16.921Z,4.53
2018-06-24T15:19:46.141Z,6.00
2018-06-24T15:22:14.482Z,5.77
2018-06-24T15:24:43.272Z,9.43
2018-06-24T15:27:11.581Z,7.63
2018-06-24T15:29:39.904Z,7.03
2018-06-24T15:32:08.197Z,5.70
2018-06-24T15:34:37.556Z,6.30
2018-06-24T15:37:05.949Z,7.33
2018-06-24T15:39:34.281Z,9.33
2018-06-24T15:42:03.304Z,7.40
2018-06-24T15:44:31.740Z,4.53
2018-06-24T15:47:00.046Z,9.90
2018-06-24T15:49:28.370Z,7.07
2018-06-24T15:51:56.673Z,15.20
2018-06-24T15:54:24.989Z,9.17
2018-06-24T15:56:53.296Z,11.97
2018-06-24T15:59:21.612Z,14.57
2018-06-24T16:01:49.944Z,15.87
2018-06-24T16:04:18.261Z,10.67
2018-06-24T16:06:46.572Z,13.17
2018-06-24T16:09:15.923Z,19.53
2018-06-24T16:11:44.312Z,17.00
2018-06-24T16:14:12.635Z,19.83
2018-06-24T16:16:40.940Z,10.83
2018-06-24T16:19:09.301Z,16.23
2018-06-24T16:21:37.608Z,23.40
2018-06-24T16:24:05.948Z,23.53
2018-06-24T16:26:34.248Z,20.43
2018-06-24T16:29:02.584Z,20.30
2018-06-24T16:31:30.889Z,14.55
2018-06-24T16:33:59.220Z,16.70
2018-06-24T16:36:27.537Z,20.02
2018-06-24T16:38:55.889Z,14.40
2018-06-24T16:41:24.228Z,21.95
2018-06-24T16:43:52.621Z,20.00
2018-06-24T16:46:20.928Z,18.67
2018-06-24T16:48:49.260Z,20.60
2018-06-24T16:51:17.569Z,19.97
2018-06-24T16:53:45.898Z,21.87
2018-06-24T16:56:14.213Z,19.82
2018-06-24T16:58:42.544Z,16.23
2018-06-24T17:01:10.941Z,17.30
2018-06-24T17:03:39.278Z,14.35
2018-06-24T17:06:07.611Z,16.32
2018-06-24T17:08:35.933Z,14.40
2018-06-24T17:11:04.268Z,18.42
2018-06-24T17:13:32.636Z,26.97
2018-06-24T17:16:00.770Z,29.60
2018-06-24T17:18:29.097Z,22.90
2018-06-24T17:20:57.428Z,20.72
2018-06-24T17:23:25.745Z,17.82
2018-06-24T17:25:54.080Z,16.67
2018-06-24T17:28:22.416Z,13.55
2018-06-24T17:30:50.745Z,13.38
2018-06-24T17:33:19.148Z,14.18
2018-06-24T17:35:47.482Z,15.15
2018-06-24T17:38:15.815Z,10.93
2018-06-24T17:40:44.152Z,11.75
2018-06-24T17:43:12.456Z,9.10
2018-06-24T17:45:40.834Z,12.23
2018-06-24T17:48:09.120Z,12.65
2018-06-24T17:50:37.444Z,12.47
2018-06-24T17:53:05.950Z,16.90
2018-06-24T17:55:34.297Z,13.15
2018-06-24T17:58:02.601Z,15.45
2018-06-24T18:00:30.953Z,15.35
2018-06-24T18:02:59.292Z,13.45
2018-06-24T18:05:27.636Z,17.27
2018-06-24T18:07:55.944Z,14.68
2018-06-24T18:10:24.384Z,13.78
2018-06-24T18:12:52.712Z,16.77
2018-06-24T18:15:21.033Z,9.70
2018-06-24T18:17:49.388Z,14.50
2018-06-24T18:20:17.719Z,16.02
2018-06-24T18:22:46.064Z,14.73
2018-06-24T18:25:14.389Z,9.98
2018-06-24T18:27:42.799Z,12.63
2018-06-24T18:30:11.140Z,13.25
2018-06-24T18:32:39.449Z,15.00
2018-06-24T18:35:07.807Z,12.58
2018-06-24T18:37:36.198Z,14.07
2018-06-24T18:40:04.540Z,13.43
2018-06-24T18:42:32.866Z,14.30
2018-06-24T18:45:01.205Z,11.70
2018-06-24T18:47:29.517Z,16.55
2018-06-24T18:49:57.840Z,16.12
2018-06-24T18:52:26.172Z,16.27
2018-06-24T18:54:54.511Z,17.50
2018-06-24T18:57:22.817Z,16.55
2018-06-24T18:59:51.145Z,14.68
2018-06-24T19:02:19.624Z,15.23
2018-06-24T19:04:47.872Z,14.65
2018-06-24T19:07:16.190Z,18.55
2018-06-24T19:09:44.523Z,23.22
2018-06-24T19:12:12.852Z,13.78
2018-06-24T19:14:41.180Z,15.58
2018-06-24T19:17:09.484Z,15.95
2018-06-24T19:19:38.008Z,17.40
2018-06-24T19:22:06.368Z,19.23
2018-06-24T19:24:34.694Z,12.60
2018-06-24T19:27:03.025Z,13.08
2018-06-24T19:29:31.332Z,20.68
2018-06-24T19:31:59.741Z,14.03
2018-06-24T19:34:28.041Z,13.67
2018-06-24T19:36:56.441Z,13.23
2018-06-24T19:39:25.057Z,15.60
2018-06-24T19:41:53.392Z,10.90
2018-06-24T19:44:21.713Z,13.65
2018-06-24T19:46:50.056Z,13.62
2018-06-24T19:49:18.377Z,15.53
2018-06-24T19:51:46.704Z,11.60
2018-06-24T19:54:15.019Z,9.83
2018-06-24T19:56:43.371Z,13.38
2018-06-24T19:59:11.741Z,19.00
2018-06-24T20:01:40.068Z,17.02
2018-06-24T20:04:08.385Z,15.90
2018-06-24T20:06:36.723Z,25.00
2018-06-24T20:09:07.715Z,18.00
2018-06-24T20:11:36.069Z,18.80
2018-06-24T20:14:04.406Z,20.90
2018-06-24T20:16:32.831Z,26.33
2018-06-24T20:19:01.115Z,19.87
2018-06-24T20:21:29.436Z,12.55
2018-06-24T20:23:57.748Z,18.15
2018-06-24T20:26:26.172Z,16.27
2018-06-24T20:28:54.504Z,15.23
2018-06-24T20:31:22.833Z,14.68
2018-06-24T20:33:51.136Z,15.32
2018-06-24T20:36:19.557Z,18.90
2018-06-24T20:38:47.864Z,14.73
2018-06-24T20:41:16.271Z,12.82
2018-06-24T20:43:44.594Z,16.60
2018-06-24T20:46:12.917Z,20.25
2018-06-24T20:48:41.231Z,20.12
2018-06-24T20:51:09.576Z,12.82
2018-06-24T20:53:37.640Z,17.25
2018-06-24T20:56:06.041Z,12.73
2018-06-24T20:58:34.324Z,16.20
2018-06-24T21:01:02.660Z,18.20
2018-06-24T21:03:30.969Z,14.70
2018-06-24T21:05:59.313Z,18.60
2018-06-24T21:08:27.615Z,16.10
2018-06-24T21:10:55.985Z,19.48
2018-06-24T21:13:24.292Z,20.77
2018-06-24T21:15:52.616Z,15.80
2018-06-24T21:18:20.927Z,22.15
2018-06-24T21:20:49.261Z,16.00
2018-06-24T21:23:17.574Z,18.02
2018-06-24T21:25:45.904Z,21.15
2018-06-24T21:28:14.224Z,18.12
2018-06-24T21:30:42.552Z,14.95
2018-06-24T21:33:10.884Z,23.18
2018-06-24T21:35:39.213Z,16.60
2018-06-24T21:38:07.533Z,22.58
2018-06-24T21:40:35.839Z,16.85
2018-06-24T21:43:04.174Z,21.40
2018-06-24T21:45:32.473Z,15.50
2018-06-24T21:48:00.803Z,18.37
2018-06-24T21:50:29.114Z,17.87
2018-06-24T21:52:57.469Z,19.15
2018-06-24T21:55:25.775Z,13.13
2018-06-24T21:57:54.114Z,15.83
2018-06-24T22:00:22.661Z,14.10
2018-06-24T22:02:50.988Z,16.30
2018-06-24T22:05:19.297Z,18.25
2018-06-24T22:07:47.630Z,15.58
2018-06-24T22:10:15.936Z,15.90
2018-06-24T22:12:44.277Z,14.80
2018-06-24T22:15:12.593Z,18.10
2018-06-24T22:17:40.928Z,16.30
2018-06-24T22:20:09.248Z,15.95
2018-06-24T22:22:37.580Z,16.80
2018-06-24T22:25:05.948Z,14.18
2018-06-24T22:27:34.272Z,16.02
2018-06-24T22:30:02.613Z,19.57
2018-06-24T22:32:30.949Z,13.85
2018-06-24T22:34:59.256Z,19.57
2018-06-24T22:37:27.581Z,12.80
2018-06-24T22:39:55.880Z,19.52
2018-06-24T22:42:24.217Z,16.00
2018-06-24T22:44:52.532Z,13.93
2018-06-24T22:47:20.876Z,21.90
2018-06-24T22:49:49.188Z,13.85
2018-06-24T22:52:17.519Z,34.60
2018-06-24T22:54:45.828Z,20.70
2018-06-24T22:57:14.155Z,63.95
2018-06-24T23:00:08.460Z,17.82
2018-06-24T23:02:37.076Z,20.50
2018-06-24T23:05:05.490Z,20.50
2018-06-24T23:07:33.820Z,26.77
2018-06-24T23:10:02.432Z,23.18
2018-06-24T23:12:30.523Z,23.65
2018-06-24T23:14:58.853Z,17.75
2018-06-24T23:17:27.180Z,18.52
2018-06-24T23:19:55.500Z,20.15
2018-06-24T23:22:23.830Z,24.20
2018-06-24T23:24:52.147Z,18.98
2018-06-24T23:27:20.480Z,21.02
2018-06-24T23:29:48.895Z,19.23
2018-06-24T23:32:17.344Z,25.62
2018-06-24T23:34:45.710Z,20.32
2018-06-24T23:37:14.044Z,20.97
2018-06-24T23:39:42.345Z,19.12
2018-06-24T23:42:10.681Z,24.95
2018-06-24T23:44:38.992Z,24.12
2018-06-24T23:47:07.316Z,21.37
2018-06-24T23:49:35.624Z,21.17
2018-06-24T23:52:03.956Z,21.27
2018-06-24T23:54:32.256Z,28.38
2018-06-24T23:57:00.584Z,21.37
2018-06-24T23:59:28.894Z,21.65
